Time;durP1;ratioP1;P1;durP2;ratioP2;P2;SDS_P1;SDS_P2;PMS_P1;PMS_P2;Temp;Humidity;BMP_temperature;BMP_pressure;BME280_temperature;BME280_humidity;BME280_pressure;Samples;Min_cycle;Max_cycle;Signal;HPM_P1;HPM_P2
2023/09/12 00:00:51;;;;;;;26.38;20.50;;;22.90;61.20;;;;;;5044068;28;20236;-31
2023/09/12 00:03:22;;;;;;;23.85;19.90;;;22.90;61.30;;;;;;5065418;28;20223;-31
2023/09/12 00:05:54;;;;;;;22.98;18.48;;;22.90;61.40;;;;;;5065798;28;20583;-31
2023/09/12 00:08:23;;;;;;;23.55;18.40;;;22.90;61.40;;;;;;5064884;28;20206;-31
2023/09/12 00:11:03;;;;;;;25.52;18.27;;;22.90;61.50;;;;;;5065758;28;20290;-30
2023/09/12 00:13:31;;;;;;;22.05;18.67;;;22.90;61.60;;;;;;5065611;28;21004;-31
2023/09/12 00:15:58;;;;;;;25.15;19.65;;;22.90;61.30;;;;;;5063661;28;20289;-31
2023/09/12 00:18:28;;;;;;;30.67;20.13;;;22.80;61.30;;;;;;5060659;28;20219;-31
2023/09/12 00:21:00;;;;;;;27.17;20.77;;;22.80;61.40;;;;;;5082103;28;20192;-30
2023/09/12 00:23:30;;;;;;;25.75;21.05;;;22.80;61.50;;;;;;5066275;28;20715;-31
2023/09/12 00:25:58;;;;;;;25.75;20.35;;;22.80;61.50;;;;;;5066901;28;20303;-30
2023/09/12 00:28:25;;;;;;;28.27;21.15;;;22.70;61.40;;;;;;5066579;28;20299;-31
2023/09/12 00:30:53;;;;;;;25.42;19.33;;;22.70;61.60;;;;;;5063407;28;20287;-31
2023/09/12 00:33:24;;;;;;;30.90;20.67;;;22.70;61.70;;;;;;5063286;28;20220;-31
2023/09/12 00:35:54;;;;;;;28.08;19.70;;;22.70;61.70;;;;;;5065084;28;20298;-31
2023/09/12 00:38:26;;;;;;;26.05;18.98;;;22.70;61.80;;;;;;5064182;28;20285;-31
2023/09/12 00:40:53;;;;;;;28.77;21.13;;;22.70;61.90;;;;;;5079920;28;20194;-31
2023/09/12 00:43:23;;;;;;;29.55;20.75;;;22.70;61.90;;;;;;5064758;28;20243;-31
2023/09/12 00:45:50;;;;;;;28.30;21.65;;;22.70;61.90;;;;;;5064747;28;20744;-31
2023/09/12 00:48:23;;;;;;;27.10;21.15;;;22.70;61.90;;;;;;5064219;28;20524;-31
2023/09/12 00:50:52;;;;;;;28.48;20.75;;;22.60;61.90;;;;;;5063165;28;20218;-31
2023/09/12 00:53:23;;;;;;;28.38;20.85;;;22.60;62.00;;;;;;5062821;28;20627;-31
2023/09/12 00:55:57;;;;;;;31.13;22.17;;;22.60;62.10;;;;;;5064723;28;20303;-31
2023/09/12 00:58:25;;;;;;;25.70;20.40;;;22.60;62.20;;;;;;5057226;28;20234;-30
2023/09/12 01:00:59;;;;;;;26.20;19.77;;;22.60;62.10;;;;;;5059184;28;20970;-31
2023/09/12 01:03:27;;;;;;;27.63;21.17;;;22.60;62.20;;;;;;5048091;28;20236;-31
2023/09/12 01:05:56;;;;;;;23.98;19.98;;;22.50;62.20;;;;;;5064216;28;20203;-31
2023/09/12 01:08:25;;;;;;;28.80;20.27;;;22.50;62.10;;;;;;5064635;28;20300;-30
2023/09/12 01:10:56;;;;;;;26.98;20.58;;;22.50;62.20;;;;;;5064370;28;20324;-31
2023/09/12 01:13:23;;;;;;;32.00;22.38;;;22.50;62.30;;;;;;5058188;28;20310;-31
2023/09/12 01:15:51;;;;;;;27.58;20.42;;;22.50;62.40;;;;;;5070154;28;20669;-31
2023/09/12 01:18:18;;;;;;;24.65;19.55;;;22.50;62.40;;;;;;5062120;28;20207;-31
2023/09/12 01:21:17;;;;;;;24.40;18.73;;;22.40;62.40;;;;;;5065505;28;20210;-30
2023/09/12 01:24:20;;;;;;;25.05;17.98;;;22.40;62.60;;;;;;5064804;28;20226;-31
2023/09/12 01:27:22;;;;;;;25.48;16.63;;;22.40;62.70;;;;;;5080192;28;20218;-30
2023/09/12 01:29:53;;;;;;;23.25;16.73;;;22.40;62.80;;;;;;5031822;28;20283;-30
2023/09/12 01:32:23;;;;;;;21.63;15.55;;;22.40;62.70;;;;;;5065506;28;20207;-31
2023/09/12 01:34:55;;;;;;;22.20;16.08;;;22.40;62.70;;;;;;5065612;28;20225;-31
2023/09/12 01:37:26;;;;;;;25.90;18.48;;;22.40;62.70;;;;;;5065582;28;20241;-31
2023/09/12 01:39:53;;;;;;;24.17;17.50;;;22.40;62.80;;;;;;5064487;28;20261;-31
2023/09/12 01:42:22;;;;;;;22.42;17.42;;;22.40;62.80;;;;;;5062397;28;20203;-31
2023/09/12 01:44:55;;;;;;;23.02;17.38;;;22.30;62.70;;;;;;5064410;28;20187;-31
2023/09/12 01:47:23;;;;;;;23.40;18.02;;;22.30;62.80;;;;;;5062415;28;20614;-31
2023/09/12 01:49:57;;;;;;;23.20;19.15;;;22.30;62.80;;;;;;5062636;28;20222;-31
2023/09/12 01:52:28;;;;;;;21.40;17.83;;;22.30;62.90;;;;;;5063758;28;20196;-31
2023/09/12 01:55:01;;;;;;;28.42;18.55;;;22.30;62.90;;;;;;5063681;28;20231;-30
2023/09/12 01:57:32;;;;;;;25.25;19.25;;;22.20;62.90;;;;;;5062512;28;20208;-31
2023/09/12 02:00:01;;;;;;;24.02;18.58;;;22.20;62.90;;;;;;5061903;28;20649;-30
2023/09/12 02:02:31;;;;;;;23.40;19.63;;;22.20;63.00;;;;;;5063775;28;20239;-31
2023/09/12 02:05:10;;;;;;;26.25;19.48;;;22.20;63.00;;;;;;5064202;28;20225;-31
2023/09/12 02:07:38;;;;;;;26.33;18.95;;;22.20;63.20;;;;;;5061852;28;20195;-30
2023/09/12 02:10:06;;;;;;;27.70;19.80;;;22.20;63.10;;;;;;5061766;28;20207;-30
2023/09/12 02:12:35;;;;;;;24.75;18.83;;;22.20;63.10;;;;;;5063533;28;20236;-31
2023/09/12 02:15:03;;;;;;;23.15;18.15;;;22.20;63.20;;;;;;5063938;28;20226;-30
2023/09/12 02:17:33;;;;;;;24.08;18.73;;;22.20;63.20;;;;;;5062146;28;20272;-31
2023/09/12 02:20:00;;;;;;;24.23;19.60;;;22.10;63.20;;;;;;5062003;28;20596;-30
2023/09/12 02:22:27;;;;;;;24.75;19.60;;;22.10;63.40;;;;;;5058815;28;20670;-31
2023/09/12 02:24:58;;;;;;;24.48;16.85;;;22.10;63.30;;;;;;5049356;28;20216;-30
2023/09/12 02:27:28;;;;;;;20.02;15.63;;;22.10;63.40;;;;;;5080200;28;20692;-30
2023/09/12 02:29:57;;;;;;;20.70;15.80;;;22.10;63.30;;;;;;5069956;28;20208;-30
2023/09/12 02:32:24;;;;;;;21.33;16.75;;;22.10;63.30;;;;;;5043357;28;20697;-30
2023/09/12 02:34:53;;;;;;;22.30;16.50;;;22.10;63.40;;;;;;5044906;28;20257;-28
2023/09/12 02:37:20;;;;;;;19.33;15.48;;;22.10;63.50;;;;;;5051245;28;20829;-27
2023/09/12 02:39:47;;;;;;;19.30;15.32;;;22.10;63.50;;;;;;5052105;28;20256;-27
2023/09/12 02:42:17;;;;;;;20.73;15.15;;;22.10;63.20;;;;;;5045449;28;20763;-27
2023/09/12 02:44:48;;;;;;;19.42;16.27;;;22.10;63.40;;;;;;5045292;28;20631;-27
2023/09/12 02:47:18;;;;;;;22.40;16.33;;;22.10;63.60;;;;;;5045003;28;20212;-28
2023/09/12 02:49:45;;;;;;;24.15;17.45;;;22.10;63.60;;;;;;5044048;28;20678;-27
2023/09/12 02:52:12;;;;;;;19.83;17.27;;;22.10;64.20;;;;;;5057802;28;20377;-27
2023/09/12 02:54:39;;;;;;;24.02;17.67;;;22.10;63.70;;;;;;5043011;28;20287;-31
2023/09/12 02:57:09;;;;;;;23.20;17.90;;;22.10;63.80;;;;;;5058183;28;20200;-31
2023/09/12 02:59:36;;;;;;;23.17;16.75;;;22.10;63.90;;;;;;5041728;28;20225;-31
2023/09/12 03:02:06;;;;;;;25.17;18.50;;;22.10;63.90;;;;;;5043030;28;20323;-30
2023/09/12 03:04:35;;;;;;;29.02;19.77;;;22.10;64.10;;;;;;5041417;28;20230;-30
2023/09/12 03:07:02;;;;;;;29.45;21.23;;;22.10;64.00;;;;;;5057641;28;20223;-30
2023/09/12 03:09:32;;;;;;;29.33;21.50;;;22.10;64.00;;;;;;5062295;28;20584;-30
2023/09/12 03:12:02;;;;;;;22.83;19.70;;;22.10;64.00;;;;;;5065972;28;20570;-30
2023/09/12 03:14:30;;;;;;;29.48;21.15;;;22.10;64.00;;;;;;5068400;28;20219;-30
2023/09/12 03:16:57;;;;;;;21.50;18.08;;;22.10;64.00;;;;;;5068249;28;20324;-30
2023/09/12 03:19:25;;;;;;;25.20;19.85;;;22.10;64.30;;;;;;5068155;28;20678;-31
2023/09/12 03:21:52;;;;;;;26.77;20.17;;;22.10;64.00;;;;;;5067740;28;20203;-30
2023/09/12 03:24:28;;;;;;;27.38;20.48;;;22.10;64.00;;;;;;5066905;28;20203;-30
2023/09/12 03:26:58;;;;;;;29.30;21.88;;;22.10;64.10;;;;;;5061236;28;20203;-30
2023/09/12 03:29:25;;;;;;;29.65;22.90;;;22.10;64.10;;;;;;5066193;28;20231;-30
2023/09/12 03:31:53;;;;;;;31.80;23.95;;;22.10;64.20;;;;;;5067653;28;20222;-30
2023/09/12 03:34:22;;;;;;;34.67;24.85;;;22.10;64.20;;;;;;5067856;28;20227;-30
2023/09/12 03:36:51;;;;;;;32.42;23.65;;;22.10;64.20;;;;;;5065635;28;20664;-31
2023/09/12 03:39:25;;;;;;;34.97;23.95;;;22.10;64.30;;;;;;5066280;28;20322;-31
2023/09/12 03:41:55;;;;;;;32.80;24.42;;;22.10;64.30;;;;;;5064644;28;20652;-30
2023/09/12 03:44:22;;;;;;;32.63;24.10;;;22.10;64.30;;;;;;5063489;28;20300;-30
2023/09/12 03:46:49;;;;;;;37.28;24.92;;;22.10;64.30;;;;;;5083087;28;20291;-30
2023/09/12 03:49:16;;;;;;;40.00;28.40;;;22.00;64.30;;;;;;5068538;28;20255;-30
2023/09/12 03:51:46;;;;;;;38.85;26.92;;;22.00;64.40;;;;;;5082419;28;20216;-30
2023/09/12 03:54:15;;;;;;;38.50;28.80;;;22.10;64.50;;;;;;5066202;28;20215;-28
2023/09/12 03:56:42;;;;;;;39.92;27.25;;;22.10;64.50;;;;;;5064544;28;20206;-28
2023/09/12 03:59:17;;;;;;;43.05;28.42;;;22.00;64.40;;;;;;5065910;28;20219;-28
2023/09/12 04:01:44;;;;;;;40.97;29.10;;;22.00;64.60;;;;;;5064105;28;20231;-28
2023/09/12 04:04:12;;;;;;;43.47;30.67;;;22.00;64.50;;;;;;5077508;28;20262;-28
2023/09/12 04:06:46;;;;;;;47.00;33.63;;;22.00;64.40;;;;;;5057404;28;20718;-28
2023/09/12 04:09:14;;;;;;;45.00;33.63;;;22.10;64.50;;;;;;5046345;28;20631;-27
2023/09/12 04:11:41;;;;;;;44.05;32.90;;;22.00;64.50;;;;;;5061393;28;20594;-27
2023/09/12 04:14:14;;;;;;;38.60;29.90;;;22.00;64.60;;;;;;5066717;28;20249;-27
2023/09/12 04:16:42;;;;;;;42.17;30.13;;;22.00;64.60;;;;;;5066764;28;20261;-27
2023/09/12 04:19:11;;;;;;;39.65;30.90;;;22.10;64.70;;;;;;5079429;28;20211;-27
2023/09/12 04:21:41;;;;;;;41.80;29.25;;;22.10;64.80;;;;;;5060571;28;20211;-27
2023/09/12 04:24:11;;;;;;;44.60;30.95;;;22.10;64.90;;;;;;5064568;28;20284;-28
2023/09/12 04:26:40;;;;;;;48.20;32.67;;;22.10;64.90;;;;;;5046927;28;20204;-27
2023/09/12 04:29:10;;;;;;;43.13;30.65;;;22.10;64.90;;;;;;5062046;28;20217;-27
2023/09/12 04:31:37;;;;;;;48.25;33.42;;;22.10;65.00;;;;;;5046553;28;20258;-27
2023/09/12 04:34:05;;;;;;;54.25;34.58;;;22.00;64.90;;;;;;5071420;28;20203;-27
2023/09/12 04:36:34;;;;;;;57.70;37.05;;;22.10;65.10;;;;;;5071252;28;20227;-27
2023/09/12 04:39:05;;;;;;;50.83;34.40;;;22.10;65.10;;;;;;5063905;28;20200;-31
2023/09/12 04:41:37;;;;;;;50.67;36.00;;;22.10;65.20;;;;;;5064669;28;20314;-27
2023/09/12 04:44:04;;;;;;;62.25;38.83;;;22.10;65.30;;;;;;5059587;28;20301;-28
2023/09/12 04:46:33;;;;;;;64.32;39.13;;;22.10;65.30;;;;;;5079421;28;20613;-27
2023/09/12 04:49:01;;;;;;;65.50;38.97;;;22.10;65.30;;;;;;5065926;28;20206;-27
2023/09/12 04:51:33;;;;;;;56.47;38.00;;;22.10;65.30;;;;;;5065870;28;20576;-28
2023/09/12 04:54:02;;;;;;;58.70;38.47;;;22.10;65.30;;;;;;5061191;28;20293;-27
2023/09/12 04:56:30;;;;;;;59.35;40.38;;;22.10;65.60;;;;;;5062430;28;20306;-27
2023/09/12 04:59:01;;;;;;;59.53;37.97;;;22.10;65.30;;;;;;5056378;28;20243;-27
2023/09/12 05:01:31;;;;;;;60.47;40.67;;;22.10;65.50;;;;;;5050571;28;20267;-27
2023/09/12 05:04:00;;;;;;;57.80;38.20;;;22.10;65.50;;;;;;5061859;28;20629;-28
2023/09/12 05:06:28;;;;;;;64.70;39.20;;;22.10;65.50;;;;;;5056010;28;20204;-27
2023/09/12 05:09:00;;;;;;;65.32;40.85;;;22.10;65.60;;;;;;5052435;28;20284;-27
2023/09/12 05:11:29;;;;;;;59.38;40.72;;;22.10;65.60;;;;;;5055605;28;20298;-28
2023/09/12 05:13:59;;;;;;;65.82;40.85;;;22.10;65.60;;;;;;5055800;28;20265;-29
2023/09/12 05:16:27;;;;;;;72.07;42.20;;;22.10;65.60;;;;;;5056785;28;20282;-29
2023/09/12 05:18:54;;;;;;;65.55;41.03;;;22.10;65.70;;;;;;5056849;28;20197;-29
2023/09/12 05:21:22;;;;;;;63.50;42.22;;;22.10;65.70;;;;;;5042407;28;20311;-29
2023/09/12 05:23:49;;;;;;;65.95;42.25;;;22.10;65.60;;;;;;5057793;28;20308;-29
2023/09/12 05:26:16;;;;;;;62.22;41.83;;;22.10;65.60;;;;;;5046708;28;20309;-29
2023/09/12 05:28:43;;;;;;;66.30;40.47;;;22.10;65.60;;;;;;5060224;28;20314;-29
2023/09/12 05:31:13;;;;;;;61.83;40.13;;;22.10;65.70;;;;;;5066599;28;20195;-29
2023/09/12 05:33:41;;;;;;;70.53;41.80;;;22.10;65.70;;;;;;5060799;28;20218;-29
2023/09/12 05:36:08;;;;;;;66.68;40.88;;;22.10;65.70;;;;;;5078834;28;20622;-29
2023/09/12 05:38:35;;;;;;;60.72;39.95;;;22.10;65.80;;;;;;5059023;28;20214;-27
2023/09/12 05:41:05;;;;;;;57.35;38.28;;;22.10;65.80;;;;;;5063383;28;20195;-27
2023/09/12 05:43:32;;;;;;;60.40;38.17;;;22.10;65.80;;;;;;5050166;28;20220;-30
2023/09/12 05:45:59;;;;;;;56.70;37.00;;;22.10;65.90;;;;;;5049550;28;20294;-30
2023/09/12 05:48:26;;;;;;;60.15;39.13;;;22.10;65.80;;;;;;5056525;28;20203;-31
2023/09/12 05:50:53;;;;;;;54.28;37.13;;;22.10;65.90;;;;;;5045700;28;20211;-30
2023/09/12 05:53:21;;;;;;;58.35;37.72;;;22.10;65.90;;;;;;5059990;28;20208;-30
2023/09/12 05:55:48;;;;;;;61.33;39.22;;;22.10;65.90;;;;;;5052992;28;20366;-31
2023/09/12 05:58:15;;;;;;;59.45;38.63;;;22.10;65.90;;;;;;5058858;28;20312;-31
2023/09/12 06:00:47;;;;;;;65.20;40.40;;;22.10;66.00;;;;;;5068538;28;20704;-30
2023/09/12 06:03:16;;;;;;;80.03;43.88;;;22.10;66.00;;;;;;5064019;28;20735;-31
2023/09/12 06:05:44;;;;;;;69.15;44.08;;;22.10;66.10;;;;;;5045072;28;20206;-33
2023/09/12 06:08:11;;;;;;;62.92;40.85;;;22.10;66.10;;;;;;5046024;28;20268;-30
2023/09/12 06:10:43;;;;;;;75.93;45.25;;;22.10;66.10;;;;;;5044586;28;20211;-31
2023/09/12 06:13:10;;;;;;;75.53;45.92;;;22.10;66.10;;;;;;5049388;28;20294;-31
2023/09/12 06:15:41;;;;;;;78.97;46.30;;;22.00;66.00;;;;;;5047702;28;20224;-31
2023/09/12 06:18:11;;;;;;;82.55;47.17;;;22.00;66.10;;;;;;5047752;28;20199;-30
2023/09/12 06:20:43;;;;;;;82.75;46.95;;;22.00;66.10;;;;;;5044504;28;20222;-31
2023/09/12 06:23:10;;;;;;;88.22;48.60;;;22.00;66.20;;;;;;5074603;28;20269;-31
2023/09/12 06:25:37;;;;;;;60.75;40.83;;;22.00;66.20;;;;;;5058793;28;20208;-30
2023/09/12 06:28:10;;;;;;;71.55;44.70;;;22.00;66.20;;;;;;5080505;28;20608;-30
2023/09/12 06:30:39;;;;;;;66.57;40.70;;;22.00;66.30;;;;;;5058499;28;20200;-31
2023/09/12 06:33:06;;;;;;;66.43;43.42;;;22.10;66.30;;;;;;5054303;28;20301;-31
2023/09/12 06:35:38;;;;;;;68.20;42.45;;;22.10;66.20;;;;;;5075721;28;20308;-30
2023/09/12 06:38:08;;;;;;;61.90;40.00;;;22.10;66.40;;;;;;5072534;28;20604;-33
2023/09/12 06:40:38;;;;;;;65.18;40.47;;;22.10;66.50;;;;;;5054068;28;20448;-32
2023/09/12 06:43:05;;;;;;;62.03;38.80;;;22.10;66.50;;;;;;5062873;28;20274;-32
2023/09/12 06:45:37;;;;;;;54.05;34.67;;;22.10;66.50;;;;;;5060177;28;20249;-32
2023/09/12 06:48:05;;;;;;;62.97;41.17;;;22.10;66.50;;;;;;5061497;28;20208;-32
2023/09/12 06:50:32;;;;;;;57.58;38.72;;;22.10;66.60;;;;;;5064209;28;20216;-31
2023/09/12 06:53:01;;;;;;;64.25;41.20;;;22.20;66.60;;;;;;5060339;28;20270;-32
2023/09/12 06:55:28;;;;;;;62.60;40.00;;;22.20;66.60;;;;;;5062482;28;20249;-32
2023/09/12 06:57:55;;;;;;;80.72;45.33;;;22.20;66.60;;;;;;5047615;28;20307;-33
2023/09/12 07:00:24;;;;;;;79.15;44.50;;;22.20;66.60;;;;;;5061425;28;20908;-32
2023/09/12 07:02:53;;;;;;;66.20;43.17;;;22.20;66.60;;;;;;5049079;28;20618;-32
2023/09/12 07:05:23;;;;;;;73.95;45.70;;;22.20;66.60;;;;;;5048305;28;20765;-31
2023/09/12 07:07:53;;;;;;;71.60;45.20;;;22.30;66.80;;;;;;5044938;28;20720;-31
2023/09/12 07:10:23;;;;;;;73.85;45.38;;;22.30;66.70;;;;;;5054040;28;20350;-32
2023/09/12 07:12:54;;;;;;;85.07;49.60;;;22.30;66.80;;;;;;5050888;28;20204;-31
2023/09/12 07:15:26;;;;;;;74.82;47.40;;;22.30;66.80;;;;;;5070064;28;20226;-31
2023/09/12 07:17:56;;;;;;;74.80;48.63;;;22.40;66.90;;;;;;5067655;28;20806;-27
2023/09/12 07:20:24;;;;;;;86.80;51.63;;;22.40;66.90;;;;;;5063135;28;20200;-27
2023/09/12 07:22:53;;;;;;;76.53;47.08;;;22.40;66.90;;;;;;5049574;28;20207;-27
2023/09/12 07:25:27;;;;;;;78.72;47.92;;;22.50;67.00;;;;;;5053625;28;20581;-27
2023/09/12 07:27:57;;;;;;;80.13;47.70;;;22.50;67.00;;;;;;5047718;28;20281;-28
2023/09/12 07:30:28;;;;;;;72.88;44.38;;;22.60;67.10;;;;;;5053815;28;20231;-27
2023/09/12 07:32:56;;;;;;;69.32;43.97;;;22.60;67.10;;;;;;5045933;28;20240;-27
2023/09/12 07:35:24;;;;;;;78.25;46.45;;;22.60;67.20;;;;;;5053009;28;20219;-27
2023/09/12 07:37:51;;;;;;;74.55;45.33;;;22.60;67.10;;;;;;5063238;28;20212;-27
2023/09/12 07:40:22;;;;;;;62.17;40.78;;;22.70;67.30;;;;;;5064299;28;20760;-27
2023/09/12 07:42:50;;;;;;;71.13;41.85;;;22.70;67.30;;;;;;5047642;28;20649;-30
2023/09/12 07:45:17;;;;;;;61.88;41.28;;;22.80;67.50;;;;;;5047494;28;20552;-31
2023/09/12 07:47:50;;;;;;;64.00;40.72;;;22.80;67.40;;;;;;5047075;28;20788;-30
2023/09/12 07:50:19;;;;;;;62.20;39.83;;;22.90;67.40;;;;;;5049145;28;20219;-31
2023/09/12 07:52:49;;;;;;;52.97;35.72;;;22.90;67.30;;;;;;5047161;28;20197;-31
2023/09/12 07:55:16;;;;;;;53.05;35.60;;;23.00;67.50;;;;;;5045374;28;20311;-31
2023/09/12 07:57:43;;;;;;;63.58;34.58;;;23.00;67.40;;;;;;5046968;28;20622;-30
2023/09/12 08:00:11;;;;;;;51.90;33.22;;;23.10;67.30;;;;;;5047326;28;20265;-31
2023/09/12 08:02:38;;;;;;;51.22;34.50;;;23.10;67.30;;;;;;5045109;28;20236;-31
2023/09/12 08:05:08;;;;;;;41.45;29.25;;;23.20;67.40;;;;;;5045602;28;20200;-31
2023/09/12 08:07:38;;;;;;;42.85;29.23;;;23.20;67.50;;;;;;5059985;28;20630;-31
2023/09/12 08:10:07;;;;;;;42.65;28.13;;;23.30;67.50;;;;;;5065354;28;20623;-31
2023/09/12 08:12:38;;;;;;;42.72;28.35;;;23.30;67.50;;;;;;5062414;28;20216;-31
2023/09/12 08:15:06;;;;;;;34.65;26.50;;;23.40;67.70;;;;;;5055939;28;20196;-31
2023/09/12 08:17:38;;;;;;;41.65;28.48;;;23.40;67.40;;;;;;5055017;28;20212;-31
2023/09/12 08:20:11;;;;;;;40.83;27.45;;;23.50;67.40;;;;;;5046921;28;20193;-31
2023/09/12 08:22:38;;;;;;;46.25;27.80;;;23.50;67.30;;;;;;5064000;28;20364;-31
2023/09/12 08:25:09;;;;;;;41.30;28.33;;;23.60;67.30;;;;;;5077676;28;20227;-32
2023/09/12 08:27:39;;;;;;;45.75;29.48;;;23.60;67.30;;;;;;5058544;28;20216;-31
2023/09/12 08:30:07;;;;;;;49.08;30.63;;;23.60;67.30;;;;;;5061825;28;20203;-31
2023/09/12 08:32:39;;;;;;;44.65;29.15;;;23.70;67.30;;;;;;5045036;28;20223;-35
2023/09/12 08:35:07;;;;;;;42.25;28.73;;;23.70;67.20;;;;;;5055937;28;20208;-31
2023/09/12 08:37:41;;;;;;;43.17;29.05;;;23.70;67.20;;;;;;5047558;28;20646;-31
2023/09/12 08:40:12;;;;;;;49.53;30.85;;;23.80;67.30;;;;;;5046178;28;20224;-27
2023/09/12 08:42:41;;;;;;;40.15;28.65;;;23.80;67.20;;;;;;5046260;28;20298;-28
2023/09/12 08:45:13;;;;;;;39.92;28.58;;;23.80;67.30;;;;;;5059160;28;20211;-27
2023/09/12 08:47:44;;;;;;;40.17;26.33;;;23.80;67.10;;;;;;5065248;28;20207;-27
2023/09/12 08:50:18;;;;;;;38.80;27.00;;;23.80;67.20;;;;;;5081175;28;20214;-27
2023/09/12 08:52:47;;;;;;;40.72;28.80;;;23.80;67.10;;;;;;5080711;28;20211;-27
2023/09/12 08:55:37;;;;;;;44.22;30.42;;;23.90;67.20;;;;;;5055787;28;20496;-28
2023/09/12 08:58:05;;;;;;;45.72;29.50;;;23.90;67.20;;;;;;5060705;28;20342;-27
2023/09/12 09:00:35;;;;;;;41.42;28.20;;;23.90;67.10;;;;;;5046842;28;20216;-28
2023/09/12 09:03:06;;;;;;;46.33;30.27;;;24.00;67.30;;;;;;5060818;28;20274;-28
2023/09/12 09:05:34;;;;;;;43.60;29.67;;;24.00;67.30;;;;;;5060889;28;20455;-27
2023/09/12 09:08:03;;;;;;;43.10;28.77;;;24.00;67.30;;;;;;5044552;28;20671;-27
2023/09/12 09:10:32;;;;;;;41.75;28.80;;;24.00;67.30;;;;;;5057059;28;20292;-27
2023/09/12 09:13:18;;;;;;;40.17;26.15;;;24.00;67.30;;;;;;5065773;28;20773;-28
2023/09/12 09:15:45;;;;;;;40.20;29.50;;;24.10;67.30;;;;;;5057834;28;20318;-27
2023/09/12 09:18:17;;;;;;;38.80;27.38;;;24.10;67.30;;;;;;5056873;28;20635;-27
2023/09/12 09:20:50;;;;;;;41.47;27.02;;;24.10;67.10;;;;;;5061468;28;20212;-27
2023/09/12 09:23:18;;;;;;;34.47;25.23;;;24.10;67.00;;;;;;5064798;28;20199;-27
2023/09/12 09:25:53;;;;;;;42.30;26.42;;;24.20;67.10;;;;;;5061358;28;20203;-27
2023/09/12 09:28:24;;;;;;;39.03;26.40;;;24.20;67.20;;;;;;5055872;28;20313;-27
2023/09/12 09:30:56;;;;;;;36.67;24.90;;;24.20;67.10;;;;;;5045578;28;20204;-27
2023/09/12 09:33:27;;;;;;;39.92;25.50;;;24.20;67.10;;;;;;5045500;28;20643;-27
2023/09/12 09:36:05;;;;;;;32.47;23.20;;;24.20;67.20;;;;;;5046485;28;20566;-28
2023/09/12 09:38:35;;;;;;;37.47;24.48;;;24.20;67.30;;;;;;5044546;28;20203;-27
2023/09/12 09:41:09;;;;;;;34.83;25.77;;;24.30;67.30;;;;;;5059632;28;20971;-28
2023/09/12 09:43:38;;;;;;;33.53;23.30;;;24.30;67.30;;;;;;5045682;28;20204;-27
2023/09/12 09:46:06;;;;;;;23.45;15.75;;;24.40;67.40;;;;;;5059299;28;20250;-27
2023/09/12 09:48:36;;;;;;;19.92;13.55;;;24.40;67.30;;;;;;5075721;28;20573;-27
2023/09/12 09:51:08;;;;;;;19.00;11.80;;;24.50;67.30;;;;;;5061924;28;20199;-27
2023/09/12 09:53:39;;;;;;;19.83;10.45;;;24.50;67.20;;;;;;5044525;28;20754;-27
2023/09/12 09:56:11;;;;;;;30.35;14.07;;;24.60;67.30;;;;;;5045365;28;20228;-30
2023/09/12 09:58:55;;;;;;;22.27;12.15;;;24.60;67.20;;;;;;5060551;28;20224;-30
2023/09/12 10:01:31;;;;;;;14.73;11.32;;;24.60;67.30;;;;;;5047711;28;20251;-30
2023/09/12 10:04:02;;;;;;;17.08;11.63;;;24.70;67.30;;;;;;5058262;28;20201;-31
2023/09/12 10:06:30;;;;;;;16.73;12.15;;;24.80;67.30;;;;;;5052995;28;20216;-31
2023/09/12 10:09:05;;;;;;;14.32;11.32;;;24.80;67.10;;;;;;5060989;28;20223;-31
2023/09/12 10:11:33;;;;;;;13.27;9.88;;;24.80;67.00;;;;;;5045283;28;20344;-31
2023/09/12 10:14:04;;;;;;;12.00;8.60;;;24.90;67.00;;;;;;5058283;28;20203;-30
2023/09/12 10:16:36;;;;;;;17.55;11.75;;;24.90;66.90;;;;;;5052655;28;20254;-31
2023/09/12 10:19:21;;;;;;;14.10;11.32;;;24.90;66.90;;;;;;5063603;28;20746;-31
2023/09/12 10:22:17;;;;;;;14.38;10.52;;;25.00;66.90;;;;;;5057003;28;20291;-31
2023/09/12 10:24:50;;;;;;;13.70;9.80;;;25.00;67.00;;;;;;5047677;28;20314;-32
2023/09/12 10:27:20;;;;;;;15.77;11.25;;;25.10;67.10;;;;;;5053574;28;20678;-32
2023/09/12 10:29:49;;;;;;;20.40;11.68;;;25.10;66.90;;;;;;5058558;28;20290;-32
2023/09/12 10:32:18;;;;;;;13.25;10.10;;;25.20;67.70;;;;;;5056299;28;20215;-32
2023/09/12 10:34:48;;;;;;;12.02;9.45;;;25.20;66.70;;;;;;5052271;28;20287;-32
2023/09/12 10:37:16;;;;;;;12.85;9.05;;;25.20;66.70;;;;;;5058674;28;20227;-31
2023/09/12 10:39:49;;;;;;;12.90;9.15;;;25.30;66.90;;;;;;5055384;28;20200;-31
2023/09/12 10:42:17;;;;;;;16.13;10.07;;;25.30;66.80;;;;;;5064010;28;20273;-32
2023/09/12 10:44:46;;;;;;;14.05;10.13;;;25.40;67.00;;;;;;5068326;28;20210;-32
2023/09/12 10:47:14;;;;;;;12.30;9.30;;;25.40;66.80;;;;;;5065046;28;20217;-32
2023/09/12 10:49:44;;;;;;;10.73;9.57;;;25.50;66.70;;;;;;5049630;28;20254;-32
2023/09/12 10:52:24;;;;;;;17.63;9.10;;;25.50;66.60;;;;;;5048700;28;20723;-32
2023/09/12 10:54:54;;;;;;;16.98;9.88;;;25.50;66.60;;;;;;5054498;28;20215;-32
2023/09/12 10:57:24;;;;;;;12.25;8.70;;;25.60;66.60;;;;;;5057722;28;20212;-31
2023/09/12 11:00:10;;;;;;;11.73;9.05;;;25.60;66.40;;;;;;5074757;28;20208;-30
2023/09/12 11:02:39;;;;;;;13.25;7.57;;;25.60;66.30;;;;;;5056304;28;20285;-30
2023/09/12 11:05:27;;;;;;;14.18;10.40;;;25.70;66.50;;;;;;5075494;28;20523;-30
2023/09/12 11:08:01;;;;;;;15.38;10.23;;;25.70;66.40;;;;;;5057434;28;20234;-32
2023/09/12 11:10:32;;;;;;;15.25;10.98;;;25.70;66.40;;;;;;5058262;28;20249;-31
2023/09/12 11:13:01;;;;;;;14.80;10.30;;;25.80;66.60;;;;;;5065722;28;20276;-30
2023/09/12 11:15:29;;;;;;;12.82;10.25;;;25.80;66.50;;;;;;5054501;28;20223;-30
2023/09/12 11:18:07;;;;;;;15.88;10.10;;;25.80;66.40;;;;;;5061120;28;20646;-30
2023/09/12 11:20:59;;;;;;;10.98;8.35;;;25.90;66.60;;;;;;5047868;28;20211;-30
2023/09/12 11:23:31;;;;;;;13.93;9.23;;;25.90;66.50;;;;;;5047977;28;20491;-30
2023/09/12 11:26:09;;;;;;;15.32;9.32;;;26.00;66.40;;;;;;5065853;28;20230;-30
2023/09/12 11:28:39;;;;;;;11.90;8.35;;;26.00;66.40;;;;;;5053237;28;20641;-31
2023/09/12 11:31:06;;;;;;;11.65;9.80;;;26.10;66.50;;;;;;5055676;28;20740;-30
2023/09/12 11:33:40;;;;;;;12.07;8.93;;;26.10;66.40;;;;;;5059872;28;20227;-30
2023/09/12 11:36:13;;;;;;;14.23;9.30;;;26.10;66.30;;;;;;5049602;28;20342;-30
2023/09/12 11:38:40;;;;;;;12.57;8.88;;;26.20;66.20;;;;;;5060539;28;20200;-30
2023/09/12 11:41:13;;;;;;;12.70;8.60;;;26.20;66.20;;;;;;5058843;28;20319;-30
2023/09/12 11:43:42;;;;;;;12.48;10.15;;;26.30;66.20;;;;;;5059836;28;20208;-30
2023/09/12 11:46:10;;;;;;;24.27;11.80;;;26.30;66.10;;;;;;5049267;28;20211;-30
2023/09/12 11:48:40;;;;;;;18.10;12.10;;;26.30;65.90;;;;;;5062127;28;20505;-31
2023/09/12 11:51:12;;;;;;;15.57;10.00;;;26.30;65.40;;;;;;5063155;28;20470;-30
2023/09/12 11:53:39;;;;;;;14.50;9.68;;;26.30;65.30;;;;;;5056292;28;20269;-30
2023/09/12 11:56:07;;;;;;;16.85;10.70;;;26.20;65.20;;;;;;5051037;28;20228;-31
2023/09/12 11:58:35;;;;;;;13.65;10.07;;;26.20;65.30;;;;;;5067057;28;20646;-30
2023/09/12 12:01:03;;;;;;;12.25;8.90;;;26.20;65.00;;;;;;5070198;28;20770;-30
2023/09/12 12:03:35;;;;;;;13.63;9.68;;;26.10;65.00;;;;;;5050376;28;20298;-30
2023/09/12 12:06:04;;;;;;;11.52;9.32;;;26.10;65.40;;;;;;5051124;28;20907;-30
2023/09/12 12:08:37;;;;;;;15.02;10.82;;;26.20;65.70;;;;;;5060968;28;20314;-30
2023/09/12 12:11:06;;;;;;;13.60;9.70;;;26.20;65.60;;;;;;5046436;28;20223;-30
2023/09/12 12:13:33;;;;;;;13.57;11.18;;;26.20;65.60;;;;;;5062490;28;21104;-30
2023/09/12 12:16:17;;;;;;;13.68;9.07;;;26.30;65.60;;;;;;5048134;28;20196;-30
2023/09/12 12:18:44;;;;;;;15.07;10.35;;;26.30;65.30;;;;;;5055702;28;20558;-30
2023/09/12 12:21:12;;;;;;;11.23;10.02;;;26.30;65.10;;;;;;5048190;28;20196;-30
2023/09/12 12:23:41;;;;;;;12.27;9.45;;;26.30;65.10;;;;;;5067501;28;20200;-31
2023/09/12 12:26:12;;;;;;;14.63;10.55;;;26.30;65.10;;;;;;5057743;28;20207;-31
2023/09/12 12:28:40;;;;;;;10.82;8.73;;;26.30;65.20;;;;;;5054159;28;20230;-30
2023/09/12 12:31:10;;;;;;;11.98;8.50;;;26.30;65.10;;;;;;5048555;28;20208;-30
2023/09/12 12:33:40;;;;;;;12.18;9.82;;;26.30;64.90;;;;;;5054784;28;20211;-31
2023/09/12 12:36:29;;;;;;;12.38;8.88;;;26.30;65.00;;;;;;5074093;28;20224;-30
2023/09/12 12:38:59;;;;;;;11.75;8.95;;;26.30;64.90;;;;;;5060876;28;20214;-31
2023/09/12 12:41:29;;;;;;;15.52;10.23;;;26.20;64.60;;;;;;5055040;28;20200;-30
2023/09/12 12:44:15;;;;;;;15.13;11.65;;;26.20;64.70;;;;;;5044955;28;20705;-31